map of KLU home
KLU - Airport
Location
City:  Klagenfurt, Kärnten (Carinthia), Austria
Name:Kärnten Airport
Old (Alt.):Woerthersee International Airport
ICAO:LOWK
IATA:KLU

Details
Type:Airport (Flugplatz, Airfield)
Use:Public/Civil, Military, International (customs port of entry)
Latitude:46°38'33"N (46.642514)
Longitude:14°20'16"E (14.337739)
Elevation:1470 ft (448 m)
Variation:3.97°E (WMM2015v2 magnetic declination)
0.15° annual change
Runways:2
Longest:8924 × 148 ft (2720 × 45 m), paved

Time
Time Zone:UTC+1 (DST+2)
Local Time:

Weather
METAR:LOWK 041350Z 21003KT 150V290 9999 FEW060 06/M07 Q1026 R10L/19//95 NOSIG
TAF:LOWK 041115Z 0412/0512 VRB02KT 9999 FEW060 TX05/0414Z TNM05/0505Z
TEMPO 0418/0508 0500 FZBCFG SCT002 PROB40
TEMPO 0502/0506 0200 FZFG VV001

Related Locations
Nearby:
Farthest:CHT: 11878 mi / 19115 km
Waitangi [Tuuta], CIT, NZ

Find:

   beyond  
but within

Other Information
Maps:
NOTAMs:
Links:
Sources:

  
  • flag of Austria
  • flag of Kärnten (Carinthia)
  

Sectional Chart

Flight Planning
at skyvector.com

Satellite Image

Google Maps Satellite view

 

Copyright © 2004-2019 Karl L. Swartz. All rights reserved.
The Great Circle Mapper name and logo are trademarks of the Great Circle Mapper.
All other trademarks mentioned herein belong to their respective owners.
Please see credits for attibutions and further copyright information.

  Follow gcmap on Facebook Follow gcmap on Twitter GCmap on LinkedIn

hCard Microformat

Geo Microformat